createdAt,value
2022-10-18T00:00:02.921Z,1007.90
2022-10-18T00:01:02.890Z,1007.85
2022-10-18T00:02:02.936Z,1007.86
2022-10-18T00:03:02.871Z,1007.85
2022-10-18T00:04:02.867Z,1007.83
2022-10-18T00:05:02.926Z,1007.89
2022-10-18T00:06:02.843Z,1007.87
2022-10-18T00:07:02.837Z,1007.88
2022-10-18T00:08:02.840Z,1007.84
2022-10-18T00:09:02.839Z,1007.83
2022-10-18T00:10:02.813Z,1007.84
2022-10-18T00:11:02.840Z,1007.85
2022-10-18T00:12:02.801Z,1007.82
2022-10-18T00:13:02.808Z,1007.83
2022-10-18T00:14:02.871Z,1007.84
2022-10-18T00:15:02.788Z,1007.83
2022-10-18T00:16:02.800Z,1007.86
2022-10-18T00:17:02.780Z,1007.92
2022-10-18T00:18:02.768Z,1007.93
2022-10-18T00:19:02.752Z,1007.94
2022-10-18T00:20:02.778Z,1007.87
2022-10-18T00:21:02.763Z,1007.88
2022-10-18T00:22:02.740Z,1007.92
2022-10-18T00:23:02.753Z,1007.95
2022-10-18T00:24:02.735Z,1007.91
2022-10-18T00:25:02.723Z,1007.97
2022-10-18T00:26:02.732Z,1007.95
2022-10-18T00:27:02.728Z,1007.94
2022-10-18T00:28:02.696Z,1007.97
2022-10-18T00:29:02.779Z,1007.91
2022-10-18T00:30:02.686Z,1007.96
2022-10-18T00:31:02.692Z,1007.99
2022-10-18T00:32:02.674Z,1007.95
2022-10-18T00:33:02.674Z,1007.94
2022-10-18T00:34:02.674Z,1007.99
2022-10-18T00:35:02.650Z,1007.99
2022-10-18T00:36:02.654Z,1008.03
2022-10-18T00:37:02.630Z,1008.02
2022-10-18T00:38:02.637Z,1008.05
2022-10-18T00:39:02.630Z,1008.02
2022-10-18T00:40:02.627Z,1008.03
2022-10-18T00:41:02.612Z,1008.05
2022-10-18T00:42:02.635Z,1007.98
2022-10-18T00:43:02.587Z,1007.95
2022-10-18T00:44:03.590Z,1007.97
2022-10-18T00:45:02.604Z,1007.94
2022-10-18T00:46:02.583Z,1007.97
2022-10-18T00:47:02.582Z,1007.91
2022-10-18T00:48:02.580Z,1007.89
2022-10-18T00:49:02.567Z,1007.98
2022-10-18T00:50:02.559Z,1007.91
2022-10-18T00:51:02.550Z,1007.91
2022-10-18T00:52:02.549Z,1007.89
2022-10-18T00:53:02.539Z,1007.95
2022-10-18T00:54:02.534Z,1008.01
2022-10-18T00:55:02.539Z,1007.87
2022-10-18T00:56:02.509Z,1007.93
2022-10-18T00:57:02.525Z,1007.90
2022-10-18T00:58:02.551Z,1007.91
2022-10-18T00:59:02.486Z,1007.87
2022-10-18T01:00:02.494Z,1007.88
2022-10-18T01:01:02.478Z,1007.91
2022-10-18T01:02:02.518Z,1007.93
2022-10-18T01:03:02.492Z,1007.83
2022-10-18T01:04:02.480Z,1007.90
2022-10-18T01:05:02.463Z,1007.93
2022-10-18T01:06:02.450Z,1007.96
2022-10-18T01:07:02.432Z,1007.93
2022-10-18T01:08:02.448Z,1008.02
2022-10-18T01:09:02.427Z,1007.99
2022-10-18T01:10:02.435Z,1007.97
2022-10-18T01:11:02.421Z,1007.94
2022-10-18T01:12:02.421Z,1008.00
2022-10-18T01:13:02.410Z,1008.00
2022-10-18T01:14:02.413Z,1007.94
2022-10-18T01:15:02.394Z,1007.91
2022-10-18T01:16:02.382Z,1007.93
2022-10-18T01:17:02.371Z,1007.95
2022-10-18T01:18:02.363Z,1008.00
2022-10-18T01:19:02.420Z,1007.88
2022-10-18T01:20:02.359Z,1007.93
2022-10-18T01:21:02.333Z,1007.95
2022-10-18T01:22:02.360Z,1007.93
2022-10-18T01:23:02.332Z,1007.93
2022-10-18T01:24:02.326Z,1008.00
2022-10-18T01:26:02.437Z,1007.94
2022-10-18T01:27:02.317Z,1007.97
2022-10-18T01:28:02.327Z,1007.95
2022-10-18T01:29:02.371Z,1007.94
2022-10-18T01:30:02.273Z,1007.96
2022-10-18T01:31:02.274Z,1007.90
2022-10-18T01:32:02.298Z,1007.88
2022-10-18T01:33:02.270Z,1007.88
2022-10-18T01:35:03.275Z,1007.84
2022-10-18T01:36:02.317Z,1007.81
2022-10-18T01:37:02.249Z,1007.76
2022-10-18T01:38:02.238Z,1007.78
2022-10-18T01:39:02.234Z,1007.70
2022-10-18T01:40:02.223Z,1007.79
2022-10-18T01:41:02.225Z,1007.73
2022-10-18T01:42:02.330Z,1007.69
2022-10-18T01:43:02.250Z,1007.70
2022-10-18T01:44:02.200Z,1007.76
2022-10-18T01:45:02.211Z,1007.75
2022-10-18T01:46:02.193Z,1007.74
2022-10-18T01:47:02.162Z,1007.72
2022-10-18T01:48:02.165Z,1007.65
2022-10-18T01:49:02.182Z,1007.67
2022-10-18T01:50:02.145Z,1007.67
2022-10-18T01:51:02.193Z,1007.60
2022-10-18T01:52:02.253Z,1007.62
2022-10-18T01:53:02.141Z,1007.60
2022-10-18T01:54:02.162Z,1007.60
2022-10-18T01:55:02.114Z,1007.50
2022-10-18T01:56:02.105Z,1007.48
2022-10-18T01:57:02.118Z,1007.60
2022-10-18T01:58:02.127Z,1007.62
2022-10-18T01:59:02.102Z,1007.61
2022-10-18T02:00:02.111Z,1007.64
2022-10-18T02:01:02.168Z,1007.61
2022-10-18T02:02:02.075Z,1007.63
2022-10-18T02:03:02.089Z,1007.58
2022-10-18T02:04:02.053Z,1007.56
2022-10-18T02:05:02.058Z,1007.58
2022-10-18T02:06:02.053Z,1007.49
2022-10-18T02:07:02.036Z,1007.55
2022-10-18T02:08:18.852Z,1007.53
2022-10-18T02:09:04.022Z,1007.49
2022-10-18T02:10:02.111Z,1007.51
2022-10-18T02:11:02.025Z,1007.43
2022-10-18T02:12:01.999Z,1007.38
2022-10-18T02:13:01.990Z,1007.37
2022-10-18T02:14:01.989Z,1007.28
2022-10-18T02:15:01.981Z,1007.32
2022-10-18T02:16:01.990Z,1007.33
2022-10-18T02:17:01.967Z,1007.37
2022-10-18T02:18:01.947Z,1007.47
2022-10-18T02:19:01.964Z,1007.41
2022-10-18T02:20:01.945Z,1007.44
2022-10-18T02:21:01.933Z,1007.44
2022-10-18T02:22:01.945Z,1007.42
2022-10-18T02:23:01.931Z,1007.43
2022-10-18T02:24:01.921Z,1007.50
2022-10-18T02:25:01.913Z,1007.46
2022-10-18T02:26:01.908Z,1007.52
2022-10-18T02:27:01.910Z,1007.49
2022-10-18T02:28:01.882Z,1007.52
2022-10-18T02:29:02.913Z,1007.46
2022-10-18T02:30:01.911Z,1007.46
2022-10-18T02:31:01.890Z,1007.47
2022-10-18T02:32:01.873Z,1007.46
2022-10-18T02:33:01.887Z,1007.45
2022-10-18T02:34:01.881Z,1007.46
2022-10-18T02:35:01.831Z,1007.46
2022-10-18T02:36:02.842Z,1007.43
2022-10-18T02:37:01.870Z,1007.51
2022-10-18T02:38:01.874Z,1007.44
2022-10-18T02:39:01.822Z,1007.42
2022-10-18T02:40:01.804Z,1007.41
2022-10-18T02:41:01.809Z,1007.39
2022-10-18T02:42:01.795Z,1007.41
2022-10-18T02:43:01.825Z,1007.37
2022-10-18T02:44:01.795Z,1007.34
2022-10-18T02:45:01.820Z,1007.34
2022-10-18T02:46:01.769Z,1007.32
2022-10-18T02:47:01.767Z,1007.27
2022-10-18T02:48:01.806Z,1007.24
2022-10-18T02:49:01.750Z,1007.24
2022-10-18T02:50:01.806Z,1007.24
2022-10-18T02:51:01.739Z,1007.26
2022-10-18T02:52:01.742Z,1007.33
2022-10-18T02:53:01.718Z,1007.31
2022-10-18T02:54:01.743Z,1007.34
2022-10-18T02:55:01.758Z,1007.33
2022-10-18T02:56:01.701Z,1007.32
2022-10-18T02:57:01.691Z,1007.37
2022-10-18T02:58:01.695Z,1007.35
2022-10-18T02:59:01.705Z,1007.34
2022-10-18T03:00:01.694Z,1007.41
2022-10-18T03:01:01.714Z,1007.43
2022-10-18T03:02:01.682Z,1007.40
2022-10-18T03:03:01.674Z,1007.42
2022-10-18T03:04:01.664Z,1007.46
2022-10-18T03:05:01.682Z,1007.43
2022-10-18T03:06:01.640Z,1007.43
2022-10-18T03:07:01.638Z,1007.42
2022-10-18T03:08:01.638Z,1007.49
2022-10-18T03:09:01.630Z,1007.46
2022-10-18T03:10:01.633Z,1007.47
2022-10-18T03:11:01.610Z,1007.47
2022-10-18T03:12:01.613Z,1007.48
2022-10-18T03:13:01.595Z,1007.55
2022-10-18T03:14:01.590Z,1007.55
2022-10-18T03:15:01.605Z,1007.58
2022-10-18T03:16:01.606Z,1007.59
2022-10-18T03:17:01.584Z,1007.65
2022-10-18T03:18:01.586Z,1007.58
2022-10-18T03:19:01.571Z,1007.57
2022-10-18T03:20:01.559Z,1007.68
2022-10-18T03:21:01.561Z,1007.65
2022-10-18T03:22:01.581Z,1007.66
2022-10-18T03:23:01.546Z,1007.67
2022-10-18T03:24:02.313Z,1007.66
2022-10-18T03:25:01.539Z,1007.61
2022-10-18T03:26:01.521Z,1007.72
2022-10-18T03:27:01.534Z,1007.65
2022-10-18T03:28:01.510Z,1007.70
2022-10-18T03:29:01.575Z,1007.66
2022-10-18T03:30:01.500Z,1007.73
2022-10-18T03:31:01.491Z,1007.74
2022-10-18T03:32:01.512Z,1007.70
2022-10-18T03:33:01.467Z,1007.67
2022-10-18T03:34:01.466Z,1007.65
2022-10-18T03:35:01.482Z,1007.67
2022-10-18T03:36:01.459Z,1007.65
2022-10-18T03:37:04.666Z,1007.66
2022-10-18T03:38:01.451Z,1007.69
2022-10-18T03:39:01.430Z,1007.70
2022-10-18T03:40:01.435Z,1007.72
2022-10-18T03:41:01.417Z,1007.76
2022-10-18T03:42:01.432Z,1007.74
2022-10-18T03:43:01.433Z,1007.74
2022-10-18T03:44:01.407Z,1007.72
2022-10-18T03:45:01.424Z,1007.72
2022-10-18T03:46:01.387Z,1007.75
2022-10-18T03:47:02.298Z,1007.77
2022-10-18T03:48:01.371Z,1007.70
2022-10-18T03:49:01.383Z,1007.74
2022-10-18T03:50:01.363Z,1007.77
2022-10-18T03:51:01.362Z,1007.76
2022-10-18T03:52:01.361Z,1007.73
2022-10-18T03:53:01.343Z,1007.76
2022-10-18T03:54:01.367Z,1007.77
2022-10-18T03:55:01.366Z,1007.80
2022-10-18T03:56:01.335Z,1007.80
2022-10-18T03:57:01.314Z,1007.83
2022-10-18T03:58:01.314Z,1007.84
2022-10-18T03:59:01.329Z,1007.88
2022-10-18T04:00:01.306Z,1007.88
2022-10-18T04:01:01.294Z,1007.87
2022-10-18T04:02:01.330Z,1007.83
2022-10-18T04:03:01.284Z,1007.82
2022-10-18T04:04:01.270Z,1007.82
2022-10-18T04:05:01.309Z,1007.85
2022-10-18T04:06:01.270Z,1007.84
2022-10-18T04:07:01.277Z,1007.88
2022-10-18T04:08:01.261Z,1007.86
2022-10-18T04:09:03.180Z,1007.86
2022-10-18T04:10:01.242Z,1007.83
2022-10-18T04:11:01.256Z,1007.88
2022-10-18T04:12:01.214Z,1007.88
2022-10-18T04:13:01.250Z,1007.83
2022-10-18T04:14:01.210Z,1007.79
2022-10-18T04:15:01.262Z,1007.82
2022-10-18T04:16:01.198Z,1007.81
2022-10-18T04:17:01.182Z,1007.86
2022-10-18T04:18:01.202Z,1007.86
2022-10-18T04:19:01.167Z,1007.87
2022-10-18T04:20:01.173Z,1007.86
2022-10-18T04:21:01.182Z,1007.86
2022-10-18T04:22:01.207Z,1007.87
2022-10-18T04:23:01.167Z,1007.89
2022-10-18T04:24:01.165Z,1007.87
2022-10-18T04:25:01.134Z,1007.87
2022-10-18T04:26:01.130Z,1007.85
2022-10-18T04:27:01.122Z,1007.79
2022-10-18T04:28:14.254Z,1007.87
2022-10-18T04:29:01.151Z,1007.85
2022-10-18T04:30:01.098Z,1007.87
2022-10-18T04:31:02.305Z,1007.90
2022-10-18T04:32:01.805Z,1007.91
2022-10-18T04:33:01.099Z,1007.89
2022-10-18T04:34:01.090Z,1007.90
2022-10-18T04:35:01.073Z,1007.85
2022-10-18T04:36:01.059Z,1007.89
2022-10-18T04:37:01.072Z,1007.89
2022-10-18T04:38:02.825Z,1007.83
2022-10-18T04:39:01.059Z,1007.87
2022-10-18T04:40:01.111Z,1007.81
2022-10-18T04:41:01.025Z,1007.82
2022-10-18T04:42:01.042Z,1007.82
2022-10-18T04:43:01.022Z,1007.77
2022-10-18T04:44:01.018Z,1007.79
2022-10-18T04:45:01.404Z,1007.82
2022-10-18T04:46:00.983Z,1007.85
2022-10-18T04:47:00.982Z,1007.83
2022-10-18T04:48:00.988Z,1007.86
2022-10-18T04:49:01.000Z,1007.86
2022-10-18T04:50:00.955Z,1007.88
2022-10-18T04:51:01.965Z,1007.87
2022-10-18T04:52:00.968Z,1007.84
2022-10-18T04:53:00.959Z,1007.84
2022-10-18T04:54:00.938Z,1007.83
2022-10-18T04:55:01.097Z,1007.84
2022-10-18T04:56:01.309Z,1007.83
2022-10-18T04:57:00.933Z,1007.77
2022-10-18T04:58:00.917Z,1007.75
2022-10-18T04:59:00.920Z,1007.76
2022-10-18T05:00:00.952Z,1007.81
2022-10-18T05:01:00.955Z,1007.72
2022-10-18T05:02:00.987Z,1007.74
2022-10-18T05:03:03.500Z,1007.74
2022-10-18T05:04:01.026Z,1007.67
2022-10-18T05:05:01.748Z,1007.67
2022-10-18T05:06:02.831Z,1007.62
2022-10-18T05:07:02.095Z,1007.59
2022-10-18T05:08:00.841Z,1007.57
2022-10-18T05:09:01.914Z,1007.56
2022-10-18T05:10:00.875Z,1007.48
2022-10-18T05:11:00.884Z,1007.52
2022-10-18T05:12:01.815Z,1007.50
2022-10-18T05:13:01.088Z,1007.52
2022-10-18T05:14:00.808Z,1007.49
2022-10-18T05:15:00.863Z,1007.53
2022-10-18T05:16:00.901Z,1007.61
2022-10-18T05:17:00.779Z,1007.65
2022-10-18T05:18:00.792Z,1007.67
2022-10-18T05:19:00.779Z,1007.69
2022-10-18T05:20:00.946Z,1007.71
2022-10-18T05:21:00.766Z,1007.72
2022-10-18T05:22:00.986Z,1007.69
2022-10-18T05:23:00.899Z,1007.79
2022-10-18T05:24:00.746Z,1007.74
2022-10-18T05:25:00.805Z,1007.74
2022-10-18T05:26:00.739Z,1007.75
2022-10-18T05:27:00.722Z,1007.69
2022-10-18T05:28:06.272Z,1007.71
2022-10-18T05:29:02.863Z,1007.75
2022-10-18T05:30:04.715Z,1007.68
2022-10-18T05:31:00.712Z,1007.65
2022-10-18T05:32:00.892Z,1007.64
2022-10-18T05:33:00.681Z,1007.66
2022-10-18T05:34:00.684Z,1007.61
2022-10-18T05:35:00.702Z,1007.58
2022-10-18T05:36:00.661Z,1007.56
2022-10-18T05:37:00.656Z,1007.61
2022-10-18T05:38:00.769Z,1007.61
2022-10-18T05:39:04.022Z,1007.59
2022-10-18T05:40:00.648Z,1007.60
2022-10-18T05:41:01.299Z,1007.62
2022-10-18T05:42:00.635Z,1007.67
2022-10-18T05:43:00.610Z,1007.59
2022-10-18T05:44:00.687Z,1007.63
2022-10-18T05:45:00.613Z,1007.56
2022-10-18T05:46:00.622Z,1007.65
2022-10-18T05:47:00.618Z,1007.65
2022-10-18T05:48:00.625Z,1007.65
2022-10-18T05:49:00.584Z,1007.67
2022-10-18T05:50:00.632Z,1007.60
2022-10-18T05:51:00.578Z,1007.64
2022-10-18T05:52:00.611Z,1007.65
2022-10-18T05:53:11.888Z,1007.62
2022-10-18T05:54:02.534Z,1007.66
2022-10-18T05:55:01.429Z,1007.60
2022-10-18T05:56:00.580Z,1007.62
2022-10-18T05:57:00.528Z,1007.63
2022-10-18T05:58:00.515Z,1007.66
2022-10-18T05:59:00.548Z,1007.62
2022-10-18T06:00:00.499Z,1007.57
2022-10-18T06:01:00.491Z,1007.61
2022-10-18T06:02:00.539Z,1007.53
2022-10-18T06:03:00.742Z,1007.56
2022-10-18T06:04:00.490Z,1007.60
2022-10-18T06:05:00.786Z,1007.54
2022-10-18T06:06:00.466Z,1007.58
2022-10-18T06:07:00.451Z,1007.56
2022-10-18T06:08:00.462Z,1007.59
2022-10-18T06:09:00.455Z,1007.58
2022-10-18T06:10:00.434Z,1007.61
2022-10-18T06:11:00.450Z,1007.59
2022-10-18T06:12:00.420Z,1007.54
2022-10-18T06:13:00.415Z,1007.59
2022-10-18T06:14:00.444Z,1007.56
2022-10-18T06:15:00.424Z,1007.64
2022-10-18T06:16:00.405Z,1007.61
2022-10-18T06:17:00.391Z,1007.55
2022-10-18T06:18:00.399Z,1007.55
2022-10-18T06:19:00.366Z,1007.56
2022-10-18T06:20:02.041Z,1007.55
2022-10-18T06:21:00.411Z,1007.58
2022-10-18T06:22:00.374Z,1007.55
2022-10-18T06:23:00.372Z,1007.57
2022-10-18T06:24:00.334Z,1007.59
2022-10-18T06:25:00.387Z,1007.61
2022-10-18T06:26:00.329Z,1007.63
2022-10-18T06:27:00.381Z,1007.67
2022-10-18T06:28:00.390Z,1007.68
2022-10-18T06:29:00.384Z,1007.72
2022-10-18T06:30:00.350Z,1007.70
2022-10-18T06:31:00.299Z,1007.66
2022-10-18T06:32:01.289Z,1007.65
2022-10-18T06:33:00.272Z,1007.65
2022-10-18T06:34:00.272Z,1007.69
2022-10-18T06:35:00.265Z,1007.69
2022-10-18T06:36:00.278Z,1007.67
2022-10-18T06:37:00.292Z,1007.70
2022-10-18T06:38:00.346Z,1007.71
2022-10-18T06:39:00.862Z,1007.70
2022-10-18T06:40:00.267Z,1007.67
2022-10-18T06:41:00.237Z,1007.69
2022-10-18T06:42:00.213Z,1007.62
2022-10-18T06:43:10.650Z,1007.64
2022-10-18T06:44:01.204Z,1007.65
2022-10-18T06:45:00.279Z,1007.69
2022-10-18T06:46:00.183Z,1007.69
2022-10-18T06:47:00.241Z,1007.63
2022-10-18T06:48:00.214Z,1007.73
2022-10-18T06:49:00.169Z,1007.74
2022-10-18T06:50:00.861Z,1007.72
2022-10-18T06:51:00.165Z,1007.75
2022-10-18T06:52:00.141Z,1007.72
2022-10-18T06:53:00.156Z,1007.70
2022-10-18T06:54:16.920Z,1007.75
2022-10-18T06:55:04.215Z,1007.74
2022-10-18T06:56:01.137Z,1007.73
2022-10-18T06:57:00.130Z,1007.72
2022-10-18T06:58:00.110Z,1007.70
2022-10-18T06:59:00.218Z,1007.75
2022-10-18T07:00:00.096Z,1007.72
2022-10-18T07:01:00.084Z,1007.79
2022-10-18T07:02:00.154Z,1007.76
2022-10-18T07:03:00.058Z,1007.75
2022-10-18T07:04:00.093Z,1007.76
2022-10-18T07:05:00.053Z,1007.72
2022-10-18T07:06:00.073Z,1007.75
2022-10-18T07:07:00.064Z,1007.77
2022-10-18T07:08:00.033Z,1007.75
2022-10-18T07:09:00.082Z,1007.79
2022-10-18T07:10:00.034Z,1007.76
2022-10-18T07:11:00.027Z,1007.78
2022-10-18T07:12:00.842Z,1007.81
2022-10-18T07:13:20.046Z,1007.82
2022-10-18T07:14:02.019Z,1007.80
2022-10-18T07:15:00.079Z,1007.87
2022-10-18T07:16:00.014Z,1007.88
2022-10-18T07:16:59.999Z,1007.86
2022-10-18T07:17:59.988Z,1007.87
2022-10-18T07:18:59.989Z,1007.89
2022-10-18T07:19:59.988Z,1007.91
2022-10-18T07:20:59.945Z,1007.91
2022-10-18T07:21:59.928Z,1007.92
2022-10-18T07:22:59.969Z,1007.98
2022-10-18T07:23:59.943Z,1008.03
2022-10-18T07:25:00.031Z,1008.02
2022-10-18T07:25:59.911Z,1007.98
2022-10-18T07:26:59.904Z,1008.02
2022-10-18T07:27:59.971Z,1008.08
2022-10-18T07:28:59.940Z,1008.06
2022-10-18T07:29:59.900Z,1008.08
2022-10-18T07:31:03.657Z,1008.14
2022-10-18T07:32:01.871Z,1008.12
2022-10-18T07:32:59.877Z,1008.17
2022-10-18T07:33:59.875Z,1008.14
2022-10-18T07:35:01.001Z,1008.18
2022-10-18T07:35:59.835Z,1008.26
2022-10-18T07:36:59.875Z,1008.14
2022-10-18T07:37:59.815Z,1008.21
2022-10-18T07:38:59.877Z,1008.26
2022-10-18T07:39:59.842Z,1008.24
2022-10-18T07:40:59.812Z,1008.21
2022-10-18T07:41:59.849Z,1008.27
2022-10-18T07:43:04.054Z,1008.29
2022-10-18T07:44:00.800Z,1008.33
2022-10-18T07:44:59.797Z,1008.37
2022-10-18T07:45:59.797Z,1008.32
2022-10-18T07:46:59.775Z,1008.34
2022-10-18T07:47:59.837Z,1008.35
2022-10-18T07:48:59.758Z,1008.36
2022-10-18T07:49:59.820Z,1008.38
2022-10-18T07:50:59.774Z,1008.36
2022-10-18T07:51:59.758Z,1008.34
2022-10-18T07:52:59.793Z,1008.34
2022-10-18T07:53:59.732Z,1008.40
2022-10-18T07:54:59.715Z,1008.31
2022-10-18T07:56:00.234Z,1008.37
2022-10-18T07:56:59.703Z,1008.31
2022-10-18T07:57:59.779Z,1008.39
2022-10-18T07:58:59.695Z,1008.42
2022-10-18T07:59:59.723Z,1008.35
2022-10-18T08:00:59.708Z,1008.37
2022-10-18T08:01:59.748Z,1008.39
2022-10-18T08:02:59.734Z,1008.37
2022-10-18T08:04:03.385Z,1008.37
2022-10-18T08:05:01.678Z,1008.38
2022-10-18T08:05:59.693Z,1008.39
2022-10-18T08:06:59.646Z,1008.36
2022-10-18T08:08:01.950Z,1008.38
2022-10-18T08:08:59.642Z,1008.39
2022-10-18T08:09:59.638Z,1008.32
2022-10-18T08:10:59.624Z,1008.31
2022-10-18T08:11:59.685Z,1008.34
2022-10-18T08:12:59.693Z,1008.33
2022-10-18T08:13:59.594Z,1008.30
2022-10-18T08:14:59.609Z,1008.37
2022-10-18T08:15:59.597Z,1008.32
2022-10-18T08:16:59.597Z,1008.40
2022-10-18T08:17:59.640Z,1008.34
2022-10-18T08:18:59.700Z,1008.26
2022-10-18T08:20:11.877Z,1008.27
2022-10-18T08:21:00.565Z,1008.30
2022-10-18T08:21:59.554Z,1008.29
2022-10-18T08:23:00.586Z,1008.32
2022-10-18T08:24:00.566Z,1008.32
2022-10-18T08:24:59.537Z,1008.32
2022-10-18T08:25:59.515Z,1008.31
2022-10-18T08:26:59.574Z,1008.31
2022-10-18T08:27:59.522Z,1008.31
2022-10-18T08:29:10.623Z,1008.35
2022-10-18T08:30:01.567Z,1008.36
2022-10-18T08:30:59.518Z,1008.40
2022-10-18T08:31:59.730Z,1008.36
2022-10-18T08:32:59.624Z,1008.40
2022-10-18T08:33:59.575Z,1008.41
2022-10-18T08:34:59.515Z,1008.37
2022-10-18T08:35:59.472Z,1008.48
2022-10-18T08:36:59.469Z,1008.50
2022-10-18T08:37:59.475Z,1008.53
2022-10-18T08:38:59.477Z,1008.52
2022-10-18T08:39:59.447Z,1008.52
2022-10-18T08:40:59.434Z,1008.56
2022-10-18T08:41:59.896Z,1008.59
2022-10-18T08:42:59.430Z,1008.61
2022-10-18T08:44:01.099Z,1008.55
2022-10-18T08:45:05.021Z,1008.57
2022-10-18T08:46:00.453Z,1008.62
2022-10-18T08:46:59.427Z,1008.60
2022-10-18T08:47:59.425Z,1008.60
2022-10-18T08:48:59.383Z,1008.61
2022-10-18T08:49:59.446Z,1008.64
2022-10-18T08:50:59.456Z,1008.65
2022-10-18T08:51:59.371Z,1008.66
2022-10-18T08:52:59.423Z,1008.73
2022-10-18T08:53:59.372Z,1008.69
2022-10-18T08:54:59.337Z,1008.72
2022-10-18T08:55:59.447Z,1008.70
2022-10-18T08:56:59.328Z,1008.72
2022-10-18T08:57:59.320Z,1008.73
2022-10-18T08:58:59.358Z,1008.68
2022-10-18T08:59:59.368Z,1008.71
2022-10-18T09:00:59.315Z,1008.73
2022-10-18T09:01:59.295Z,1008.69
2022-10-18T09:02:59.348Z,1008.74
2022-10-18T09:03:59.270Z,1008.68
2022-10-18T09:05:00.277Z,1008.71
2022-10-18T09:05:59.290Z,1008.70
2022-10-18T09:06:59.266Z,1008.68
2022-10-18T09:07:59.276Z,1008.72
2022-10-18T09:08:59.487Z,1008.73
2022-10-18T09:09:59.243Z,1008.71
2022-10-18T09:10:59.333Z,1008.72
2022-10-18T09:12:01.903Z,1008.74
2022-10-18T09:13:00.248Z,1008.74
2022-10-18T09:13:59.215Z,1008.78
2022-10-18T09:14:59.286Z,1008.76
2022-10-18T09:15:59.198Z,1008.83
2022-10-18T09:17:00.199Z,1008.71
2022-10-18T09:17:59.358Z,1008.73
2022-10-18T09:18:59.195Z,1008.74
2022-10-18T09:20:59.372Z,1008.76
2022-10-18T09:21:59.157Z,1008.72
2022-10-18T09:22:59.177Z,1008.70
2022-10-18T09:23:59.375Z,1008.68
2022-10-18T09:24:59.141Z,1008.67
2022-10-18T09:25:59.132Z,1008.67
2022-10-18T09:26:59.142Z,1008.74
2022-10-18T09:27:59.116Z,1008.73
2022-10-18T09:28:59.262Z,1008.71
2022-10-18T09:29:59.169Z,1008.75
2022-10-18T09:30:59.788Z,1008.78
2022-10-18T09:31:59.088Z,1008.84
2022-10-18T09:32:59.256Z,1008.87
2022-10-18T09:33:59.080Z,1008.92
2022-10-18T09:34:59.083Z,1008.92
2022-10-18T09:35:59.133Z,1008.97
2022-10-18T09:36:59.140Z,1008.98
2022-10-18T09:37:59.058Z,1008.94
2022-10-18T09:39:00.438Z,1008.97
2022-10-18T09:39:59.168Z,1008.94
2022-10-18T09:40:59.047Z,1008.91
2022-10-18T09:41:59.027Z,1008.93
2022-10-18T09:42:59.082Z,1008.95
2022-10-18T09:43:59.018Z,1009.05
2022-10-18T09:44:59.018Z,1008.98
2022-10-18T09:45:59.037Z,1009.05
2022-10-18T09:46:58.998Z,1009.01
2022-10-18T09:47:59.062Z,1009.04
2022-10-18T09:48:59.005Z,1009.04
2022-10-18T09:49:59.034Z,1009.13
2022-10-18T09:50:58.994Z,1009.10
2022-10-18T09:51:59.030Z,1009.06
2022-10-18T09:52:58.963Z,1009.12
2022-10-18T09:53:59.006Z,1009.05
2022-10-18T09:54:58.995Z,1009.01
2022-10-18T09:55:58.978Z,1009.05
2022-10-18T09:56:59.133Z,1009.06
2022-10-18T09:57:59.826Z,1008.95
2022-10-18T09:58:59.163Z,1009.04
2022-10-18T09:59:58.914Z,1009.02
2022-10-18T10:00:58.910Z,1009.03
2022-10-18T10:01:58.977Z,1009.01
2022-10-18T10:02:58.911Z,1009.01
2022-10-18T10:03:59.907Z,1009.00
2022-10-18T10:04:58.951Z,1009.02
2022-10-18T10:05:58.999Z,1009.12
2022-10-18T10:06:58.883Z,1009.15
2022-10-18T10:07:58.903Z,1009.14
2022-10-18T10:08:58.870Z,1009.08
2022-10-18T10:09:58.871Z,1009.09
2022-10-18T10:10:58.850Z,1009.05
2022-10-18T10:11:58.859Z,1009.06
2022-10-18T10:12:58.863Z,1009.08
2022-10-18T10:13:58.989Z,1009.02
2022-10-18T10:14:58.851Z,1009.01
2022-10-18T10:15:58.895Z,1008.96
2022-10-18T10:16:59.761Z,1009.00
2022-10-18T10:17:59.835Z,1008.92
2022-10-18T10:18:58.830Z,1008.94
2022-10-18T10:19:58.834Z,1008.99
2022-10-18T10:20:58.803Z,1009.00
2022-10-18T10:21:58.802Z,1008.99
2022-10-18T10:22:58.799Z,1008.99
2022-10-18T10:23:58.815Z,1009.07
2022-10-18T10:24:58.799Z,1009.06
2022-10-18T10:25:58.859Z,1008.99
2022-10-18T10:26:59.883Z,1009.06
2022-10-18T10:27:58.858Z,1009.01
2022-10-18T10:28:58.792Z,1009.08
2022-10-18T10:30:01.526Z,1009.07
2022-10-18T10:31:00.875Z,1009.08
2022-10-18T10:31:58.813Z,1008.99
2022-10-18T10:32:58.775Z,1008.99
2022-10-18T10:33:59.434Z,1008.98
2022-10-18T10:34:58.773Z,1008.99
2022-10-18T10:35:58.734Z,1008.99
2022-10-18T10:37:31.533Z,1008.96
2022-10-18T10:37:58.710Z,1008.92
2022-10-18T10:38:58.706Z,1008.95
2022-10-18T10:40:17.238Z,1009.00
2022-10-18T10:41:00.687Z,1009.10
2022-10-18T10:41:58.698Z,1009.10
2022-10-18T10:43:08.855Z,1008.98
2022-10-18T10:44:00.682Z,1009.11
2022-10-18T10:44:58.663Z,1009.14
2022-10-18T10:45:58.670Z,1009.07
2022-10-18T10:46:58.646Z,1009.11
2022-10-18T10:47:58.656Z,1009.04
2022-10-18T10:49:21.055Z,1008.96
2022-10-18T10:50:00.643Z,1008.95
2022-10-18T10:50:58.653Z,1008.92
2022-10-18T10:52:08.573Z,1008.98
2022-10-18T10:52:59.647Z,1009.01
2022-10-18T10:53:58.610Z,1008.93
2022-10-18T10:55:06.090Z,1009.00
2022-10-18T10:56:00.634Z,1009.01
2022-10-18T10:56:58.570Z,1009.00
2022-10-18T10:57:58.586Z,1008.99
2022-10-18T10:58:58.650Z,1008.87
2022-10-18T10:59:58.577Z,1009.02
2022-10-18T11:00:58.670Z,1009.03
2022-10-18T11:01:58.575Z,1008.98
2022-10-18T11:03:06.061Z,1009.09
2022-10-18T11:04:00.562Z,1009.45
2022-10-18T11:04:58.617Z,1009.07
2022-10-18T11:05:58.520Z,1009.05
2022-10-18T11:06:58.509Z,1009.06
2022-10-18T11:07:58.492Z,1009.03
2022-10-18T11:08:58.500Z,1009.47
2022-10-18T11:09:58.521Z,1009.36
2022-10-18T11:10:58.530Z,1009.22
2022-10-18T11:11:58.472Z,1009.58
2022-10-18T11:12:58.489Z,1009.28
2022-10-18T11:14:13.601Z,1009.37
2022-10-18T11:15:00.478Z,1009.28
2022-10-18T11:15:58.471Z,1009.34
2022-10-18T11:16:58.501Z,1009.47
2022-10-18T11:17:58.449Z,1009.05
2022-10-18T11:18:58.436Z,1008.99
2022-10-18T11:19:58.488Z,1008.95
2022-10-18T11:20:58.431Z,1009.00
2022-10-18T11:21:58.415Z,1008.95
2022-10-18T11:22:58.405Z,1009.18
2022-10-18T11:23:58.472Z,1009.16
2022-10-18T11:24:58.396Z,1009.08
2022-10-18T11:25:58.387Z,1009.01
2022-10-18T11:26:58.383Z,1008.98
2022-10-18T11:27:58.367Z,1008.88
2022-10-18T11:28:58.407Z,1008.91
2022-10-18T11:29:58.367Z,1008.87
2022-10-18T11:30:58.395Z,1008.92
2022-10-18T11:31:58.352Z,1008.93
2022-10-18T11:32:58.348Z,1008.95
2022-10-18T11:34:08.611Z,1008.98
2022-10-18T11:35:00.371Z,1008.91
2022-10-18T11:36:03.566Z,1008.89
2022-10-18T11:37:25.962Z,1008.90
2022-10-18T11:38:00.887Z,1008.85
2022-10-18T11:38:58.347Z,1008.87
2022-10-18T11:39:58.309Z,1008.87
2022-10-18T11:40:58.304Z,1008.89
2022-10-18T11:41:58.295Z,1008.93
2022-10-18T11:42:58.284Z,1009.00
2022-10-18T11:44:02.529Z,1009.13
2022-10-18T11:44:59.340Z,1009.32
2022-10-18T11:45:58.316Z,1009.31
2022-10-18T11:46:59.244Z,1009.20
2022-10-18T11:47:58.287Z,1009.24
2022-10-18T11:48:58.236Z,1009.25
2022-10-18T11:49:58.219Z,1009.32
2022-10-18T11:50:59.244Z,1009.33
2022-10-18T11:52:07.875Z,1009.23
2022-10-18T11:53:00.220Z,1009.09
2022-10-18T11:53:58.223Z,1009.18
2022-10-18T11:54:58.187Z,1009.15
2022-10-18T11:55:58.240Z,1009.23
2022-10-18T11:56:58.187Z,1009.22
2022-10-18T11:57:58.221Z,1008.98
2022-10-18T11:58:58.271Z,1008.90
2022-10-18T11:59:58.187Z,1009.06
2022-10-18T12:00:58.219Z,1008.80
2022-10-18T12:01:58.171Z,1008.85
2022-10-18T12:02:58.206Z,1008.76
2022-10-18T12:03:58.163Z,1008.71
2022-10-18T12:06:00.178Z,1008.78
2022-10-18T12:06:58.161Z,1009.04
2022-10-18T12:07:58.154Z,1008.95
2022-10-18T12:08:58.135Z,1008.98